createdAt,value
2018-09-30T00:04:18.769Z,"    0"
2018-09-30T00:09:14.000Z,"    0"
2018-09-30T00:14:10.736Z,"    0"
2018-09-30T00:19:06.269Z,"    0"
2018-09-30T00:24:02.037Z,"    0"
2018-09-30T00:28:57.656Z,"    0"
2018-09-30T00:33:54.560Z,"    0"
2018-09-30T00:38:50.652Z,"    0"
2018-09-30T00:43:46.155Z,"    0"
2018-09-30T00:48:42.601Z,"    0"
2018-09-30T00:53:40.131Z,"    0"
2018-09-30T00:58:35.328Z,"    0"
2018-09-30T01:03:32.236Z,"    0"
2018-09-30T01:08:27.531Z,"    0"
2018-09-30T01:13:23.577Z,"    0"
2018-09-30T01:18:19.324Z,"    0"
2018-09-30T01:23:16.148Z,"    0"
2018-09-30T01:28:12.626Z,"    0"
2018-09-30T01:33:08.002Z,"    0"
2018-09-30T01:38:03.466Z,"    0"
2018-09-30T01:43:00.123Z,"    0"
2018-09-30T01:47:55.576Z,"    0"
2018-09-30T01:52:51.375Z,"    0"
2018-09-30T01:57:47.653Z,"    0"
2018-09-30T02:02:43.831Z,"    0"
2018-09-30T02:07:39.418Z,"    0"
2018-09-30T02:12:36.116Z,"    0"
2018-09-30T02:17:31.428Z,"    0"
2018-09-30T02:22:27.274Z,"    0"
2018-09-30T02:27:23.709Z,"    0"
2018-09-30T02:32:19.403Z,"    0"
2018-09-30T02:37:15.935Z,"    0"
2018-09-30T02:42:11.317Z,"    0"
2018-09-30T02:47:08.011Z,"    0"
2018-09-30T02:52:04.081Z,"    0"
2018-09-30T02:56:59.856Z,"    0"
2018-09-30T03:01:55.474Z,"    0"
2018-09-30T03:06:51.138Z,"    0"
2018-09-30T03:11:46.817Z,"    0"
2018-09-30T03:16:43.290Z,"    0"
2018-09-30T03:21:40.221Z,"    0"
2018-09-30T03:26:35.832Z,"    0"
2018-09-30T03:31:32.495Z,"    0"
2018-09-30T03:36:27.808Z,"    0"
2018-09-30T03:41:23.673Z,"    0"
2018-09-30T03:46:20.280Z,"    0"
2018-09-30T03:51:16.774Z,"    0"
2018-09-30T03:56:12.188Z,"    0"
2018-09-30T04:01:09.298Z,"    0"
2018-09-30T04:06:04.657Z,"    0"
2018-09-30T04:11:00.508Z,"    0"
2018-09-30T04:15:56.833Z,"    0"
2018-09-30T04:20:53.183Z,"    0"
2018-09-30T04:25:49.718Z,"    0"
2018-09-30T04:30:45.547Z,"    0"
2018-09-30T04:35:41.233Z,"    0"
2018-09-30T04:40:36.637Z,"    0"
2018-09-30T04:45:33.281Z,"    0"
2018-09-30T04:50:28.805Z,"    0"
2018-09-30T04:55:25.501Z,"    0"
2018-09-30T05:00:21.735Z,"    4"
2018-09-30T05:05:17.700Z,"    4"
2018-09-30T05:10:13.429Z,"   12"
2018-09-30T05:15:09.880Z,"   28"
2018-09-30T05:20:05.329Z,"   60"
2018-09-30T05:25:02.164Z,"  112"
2018-09-30T05:29:58.628Z,"  180"
2018-09-30T05:34:53.885Z,"  276"
2018-09-30T05:39:49.519Z,"  368"
2018-09-30T05:44:45.271Z,"  472"
2018-09-30T05:49:40.753Z,"  580"
2018-09-30T05:54:37.860Z,"  692"
2018-09-30T05:59:33.261Z,"  784"
2018-09-30T06:04:28.991Z,"  892"
2018-09-30T06:09:24.581Z,"  964"
2018-09-30T06:14:21.317Z," 1052"
2018-09-30T06:19:17.242Z," 1160"
2018-09-30T06:24:14.306Z," 1200"
2018-09-30T06:29:09.798Z," 1300"
2018-09-30T06:34:07.415Z," 1356"
2018-09-30T06:39:02.829Z," 1604"
2018-09-30T06:43:59.639Z," 1568"
2018-09-30T06:48:57.040Z," 2328"
2018-09-30T06:53:53.821Z," 2804"
2018-09-30T06:58:49.379Z," 2288"
2018-09-30T07:03:46.284Z," 1744"
2018-09-30T07:08:42.920Z," 1788"
2018-09-30T07:13:39.262Z," 1812"
2018-09-30T07:18:35.046Z," 1828"
2018-09-30T07:23:30.710Z," 1844"
2018-09-30T07:28:26.413Z," 1884"
2018-09-30T07:33:22.189Z," 1904"
2018-09-30T07:38:18.070Z," 1960"
2018-09-30T07:43:15.245Z," 1996"
2018-09-30T07:48:12.160Z," 2040"
2018-09-30T07:53:08.713Z," 2104"
2018-09-30T07:58:04.511Z," 2120"
2018-09-30T08:03:00.281Z," 2092"
2018-09-30T08:07:56.219Z," 2128"
2018-09-30T08:12:52.992Z," 2328"
2018-09-30T08:17:49.595Z," 2644"
2018-09-30T08:22:46.631Z," 2168"
2018-09-30T08:27:43.233Z," 2096"
2018-09-30T08:32:38.705Z," 2140"
2018-09-30T08:37:35.620Z," 2148"
2018-09-30T08:42:31.101Z," 2192"
2018-09-30T08:47:27.586Z," 2240"
2018-09-30T08:52:23.482Z," 2356"
2018-09-30T08:57:19.556Z," 2292"
2018-09-30T09:02:15.791Z," 2324"
2018-09-30T09:07:11.769Z," 2332"
2018-09-30T09:12:08.996Z," 2380"
2018-09-30T09:17:05.689Z," 2392"
2018-09-30T09:22:01.974Z," 2440"
2018-09-30T09:26:58.043Z," 2588"
2018-09-30T09:31:54.002Z," 3496"
2018-09-30T09:36:50.144Z," 2488"
2018-09-30T09:41:47.209Z," 2544"
2018-09-30T09:46:43.668Z," 2536"
2018-09-30T09:51:39.347Z," 3016"
2018-09-30T09:56:35.517Z," 4028"
2018-09-30T10:01:31.464Z," 2680"
2018-09-30T10:06:28.622Z," 2684"
2018-09-30T10:11:25.356Z," 2672"
2018-09-30T10:16:21.905Z," 3116"
2018-09-30T10:21:17.947Z," 2976"
2018-09-30T10:26:15.364Z," 3028"
2018-09-30T10:31:12.165Z,19040
2018-09-30T10:36:08.344Z," 3068"
2018-09-30T10:41:03.931Z," 3240"
2018-09-30T10:45:59.943Z,25312
2018-09-30T10:50:57.304Z," 9460"
2018-09-30T10:55:54.029Z,50368
2018-09-30T11:00:52.359Z,46496
2018-09-30T11:05:49.133Z,40512
2018-09-30T11:10:46.966Z,42656
2018-09-30T11:15:43.932Z,49120
2018-09-30T11:20:40.709Z,52224
2018-09-30T11:25:36.855Z,48672
2018-09-30T11:30:34.288Z,44416
2018-09-30T11:35:30.732Z,43232
2018-09-30T11:40:27.519Z,14704
2018-09-30T11:45:22.609Z,12340
2018-09-30T11:50:17.945Z," 9024"
2018-09-30T11:55:13.452Z," 5920"
2018-09-30T12:00:09.006Z,18592
2018-09-30T12:05:07.181Z,31968
2018-09-30T12:10:02.537Z,29504
2018-09-30T12:14:59.626Z,35712
2018-09-30T12:19:55.738Z,26848
2018-09-30T12:24:52.779Z," 4472"
2018-09-30T12:29:47.905Z," 5316"
2018-09-30T12:34:43.625Z," 3436"
2018-09-30T12:39:40.046Z," 4472"
2018-09-30T12:44:35.419Z," 5544"
2018-09-30T12:49:31.668Z," 6312"
2018-09-30T12:54:27.587Z," 7496"
2018-09-30T12:59:23.752Z," 8928"
2018-09-30T13:04:20.238Z," 8964"
2018-09-30T13:09:16.105Z," 7488"
2018-09-30T13:14:11.894Z," 6336"
2018-09-30T13:19:08.593Z," 6148"
2018-09-30T13:24:04.294Z," 4948"
2018-09-30T13:29:00.689Z," 5332"
2018-09-30T13:33:56.081Z," 4196"
2018-09-30T13:38:53.217Z," 4644"
2018-09-30T13:43:48.716Z," 4404"
2018-09-30T13:48:45.833Z," 3984"
2018-09-30T13:53:41.301Z," 4596"
2018-09-30T13:58:37.975Z," 4860"
2018-09-30T14:03:33.452Z," 4692"
2018-09-30T14:08:28.970Z," 4588"
2018-09-30T14:13:25.093Z," 4076"
2018-09-30T14:18:22.316Z," 3912"
2018-09-30T14:23:17.946Z," 3832"
2018-09-30T14:28:13.855Z," 3424"
2018-09-30T14:33:10.054Z," 3136"
2018-09-30T14:38:07.009Z," 3560"
2018-09-30T14:43:04.296Z," 3604"
2018-09-30T14:48:00.126Z," 3900"
2018-09-30T14:52:55.906Z," 3552"
2018-09-30T14:57:52.849Z," 3228"
2018-09-30T15:02:49.355Z," 2840"
2018-09-30T15:07:45.972Z," 2744"
2018-09-30T15:12:42.446Z," 2320"
2018-09-30T15:17:37.860Z," 2096"
2018-09-30T15:22:34.575Z," 2196"
2018-09-30T15:27:30.320Z," 2112"
2018-09-30T15:32:27.738Z," 1964"
2018-09-30T15:37:23.303Z," 1948"
2018-09-30T15:42:19.197Z," 1860"
2018-09-30T15:47:14.922Z," 1808"
2018-09-30T15:52:11.550Z," 1752"
2018-09-30T15:57:07.006Z," 1692"
2018-09-30T16:02:02.935Z," 1604"
2018-09-30T16:06:58.844Z," 1424"
2018-09-30T16:11:54.574Z," 1284"
2018-09-30T16:16:50.294Z," 1140"
2018-09-30T16:21:45.943Z,"  948"
2018-09-30T16:26:43.554Z,"  800"
2018-09-30T16:31:39.953Z,"  628"
2018-09-30T16:36:35.568Z,"  500"
2018-09-30T16:41:32.283Z,"  408"
2018-09-30T16:46:29.071Z,"  312"
2018-09-30T16:51:25.554Z,"  232"
2018-09-30T16:56:20.934Z,"  176"
2018-09-30T17:01:16.824Z,"  128"
2018-09-30T17:06:12.228Z,"   88"
2018-09-30T17:11:08.497Z,"   48"
2018-09-30T17:16:04.235Z,"   28"
2018-09-30T17:21:00.117Z,"   16"
2018-09-30T17:25:55.937Z,"    4"
2018-09-30T17:30:51.804Z,"    4"
2018-09-30T17:35:48.805Z,"    0"
2018-09-30T17:40:43.990Z,"    0"
2018-09-30T17:45:39.860Z,"    0"
2018-09-30T17:50:35.689Z,"    0"
2018-09-30T17:55:31.821Z,"    0"
2018-09-30T18:00:28.576Z,"    0"
2018-09-30T18:05:24.318Z,"    0"
2018-09-30T18:10:20.864Z,"    0"
2018-09-30T18:15:16.342Z,"    0"
2018-09-30T18:20:11.833Z,"    0"
2018-09-30T18:25:08.625Z,"    0"
2018-09-30T18:30:04.899Z,"    0"
2018-09-30T18:35:01.733Z,"    0"
2018-09-30T18:39:58.832Z,"    0"
2018-09-30T18:44:54.361Z,"    0"
2018-09-30T18:49:50.652Z,"    0"
2018-09-30T18:54:46.363Z,"    0"
2018-09-30T18:59:42.505Z,"    0"
2018-09-30T19:04:38.377Z,"    0"
2018-09-30T19:09:35.211Z,"    0"
2018-09-30T19:14:30.609Z,"    0"
2018-09-30T19:19:27.822Z,"    0"
2018-09-30T19:24:24.130Z,"    0"
2018-09-30T19:29:19.671Z,"    0"
2018-09-30T19:34:15.488Z,"    0"
2018-09-30T19:39:11.598Z,"    0"
2018-09-30T19:44:07.540Z,"    0"
2018-09-30T19:49:03.237Z,"    0"
2018-09-30T19:53:59.136Z,"    0"
2018-09-30T19:58:54.952Z,"    0"
2018-09-30T20:03:50.765Z,"    0"
2018-09-30T20:08:46.599Z,"    0"
2018-09-30T20:13:42.207Z,"    0"
2018-09-30T20:18:38.388Z,"    0"
2018-09-30T20:23:34.261Z,"    0"
2018-09-30T20:28:30.588Z,"    0"
2018-09-30T20:33:27.468Z,"    0"
2018-09-30T20:38:23.501Z,"    0"
2018-09-30T20:43:19.239Z,"    0"
2018-09-30T20:48:14.989Z,"    0"
2018-09-30T20:53:10.840Z,"    0"
2018-09-30T20:58:07.542Z,"    0"
2018-09-30T21:03:03.842Z,"    0"
2018-09-30T21:07:59.671Z,"    0"
2018-09-30T21:12:55.893Z,"    0"
2018-09-30T21:17:51.673Z,"    0"
2018-09-30T21:22:48.100Z,"    0"
2018-09-30T21:27:44.531Z,"    0"
2018-09-30T21:32:39.864Z,"    0"
2018-09-30T21:37:35.497Z,"    0"
2018-09-30T21:42:31.966Z,"    0"
2018-09-30T21:47:27.813Z,"    0"
2018-09-30T21:52:23.579Z,"    0"
2018-09-30T21:57:19.275Z,"    0"
2018-09-30T22:02:15.035Z,"    0"
2018-09-30T22:07:12.147Z,"    0"
2018-09-30T22:12:08.587Z,"    0"
2018-09-30T22:17:04.699Z,"    0"
2018-09-30T22:22:01.576Z,"    0"
2018-09-30T22:26:57.235Z,"    0"
2018-09-30T22:31:53.171Z,"    0"
2018-09-30T22:36:50.069Z,"    0"
2018-09-30T22:41:46.368Z,"    0"
2018-09-30T22:46:43.012Z,"    0"
2018-09-30T22:51:38.484Z,"    0"
2018-09-30T22:56:35.763Z,"    0"
2018-09-30T23:01:31.532Z,"    0"
2018-09-30T23:06:27.299Z,"    0"
2018-09-30T23:11:23.116Z,"    0"
2018-09-30T23:16:19.177Z,"    0"
2018-09-30T23:21:15.160Z,"    0"
2018-09-30T23:26:11.099Z,"    0"
2018-09-30T23:31:07.163Z,"    0"
2018-09-30T23:36:02.744Z,"    0"
2018-09-30T23:40:58.846Z,"    0"
2018-09-30T23:45:55.660Z,"    0"
2018-09-30T23:50:52.019Z,"    0"
2018-09-30T23:55:48.160Z,"    0"
